Time;durP1;ratioP1;P1;durP2;ratioP2;P2;SDS_P1;SDS_P2;PMS_P1;PMS_P2;Temp;Humidity;BMP_temperature;BMP_pressure;BME280_temperature;BME280_humidity;BME280_pressure;Samples;Min_cycle;Max_cycle;Signal;HPM_P1;HPM_P2
2021/08/10 00:00:06;;;;;;;6.22;5.30;;;23.50;83.90;;;;;;5096657;28;20039;-73
2021/08/10 00:02:32;;;;;;;6.75;4.85;;;23.50;84.10;;;;;;5096310;28;20028;-82
2021/08/10 00:04:58;;;;;;;7.68;5.38;;;23.50;84.50;;;;;;5096582;28;20035;-75
2021/08/10 00:07:23;;;;;;;8.30;5.75;;;23.50;85.00;;;;;;5095629;28;20060;-73
2021/08/10 00:09:49;;;;;;;6.40;5.28;;;23.50;85.40;;;;;;5096398;28;20114;-74
2021/08/10 00:12:15;;;;;;;7.03;5.68;;;23.40;85.90;;;;;;5096155;28;20028;-75
2021/08/10 00:14:41;;;;;;;8.30;5.88;;;23.40;86.60;;;;;;5096449;28;20020;-73
2021/08/10 00:17:06;;;;;;;7.97;6.22;;;23.40;87.20;;;;;;5096545;28;20458;-73
2021/08/10 00:19:32;;;;;;;7.43;6.18;;;23.30;87.80;;;;;;5096058;28;20027;-73
2021/08/10 00:21:58;;;;;;;6.90;6.20;;;23.30;88.60;;;;;;5096007;28;20056;-79
2021/08/10 00:24:23;;;;;;;7.05;5.95;;;23.30;89.10;;;;;;5096345;28;20052;-75
2021/08/10 00:26:49;;;;;;;6.88;5.90;;;23.20;89.50;;;;;;5096090;28;20062;-87
2021/08/10 00:29:15;;;;;;;8.88;6.68;;;23.10;90.10;;;;;;5096001;28;20020;-74
2021/08/10 00:31:40;;;;;;;9.55;6.82;;;23.10;90.50;;;;;;5095653;28;20402;-73
2021/08/10 00:34:06;;;;;;;7.22;6.50;;;23.00;90.80;;;;;;5095692;28;20024;-75
2021/08/10 00:36:32;;;;;;;7.35;6.63;;;23.00;91.00;;;;;;5096015;28;20028;-75
2021/08/10 00:38:57;;;;;;;8.15;7.22;;;23.00;91.30;;;;;;5095821;28;20020;-79
2021/08/10 00:41:23;;;;;;;8.98;6.55;;;22.90;91.60;;;;;;5095737;28;20118;-75
2021/08/10 00:43:49;;;;;;;10.65;6.70;;;22.90;91.80;;;;;;5095794;28;20028;-74
2021/08/10 00:46:16;;;;;;;7.35;6.65;;;22.80;92.00;;;;;;5095766;28;20031;-85
2021/08/10 00:48:42;;;;;;;7.72;6.93;;;22.80;92.20;;;;;;5095431;28;20030;-75
2021/08/10 00:51:10;;;;;;;10.07;6.85;;;22.80;92.20;;;;;;5095955;28;20024;-74
2021/08/10 00:53:36;;;;;;;9.07;6.82;;;22.70;92.40;;;;;;5095219;28;20462;-76
2021/08/10 00:56:06;;;;;;;9.93;6.80;;;22.60;92.70;;;;;;5095562;28;20027;-79
2021/08/10 00:58:32;;;;;;;;;;;22.60;93.00;;;;;;5095981;28;20358;-78
2021/08/10 01:00:58;;;;;;;7.95;6.82;;;22.60;93.30;;;;;;5077314;28;20305;-84
2021/08/10 01:03:24;;;;;;;8.30;7.45;;;22.50;93.50;;;;;;5095114;28;20050;-79
2021/08/10 01:05:50;;;;;;;8.57;7.60;;;22.50;93.80;;;;;;5095198;28;20446;-82
2021/08/10 01:08:39;;;;;;;9.00;7.20;;;22.50;94.30;;;;;;5095570;28;20020;-78
2021/08/10 01:11:36;;;;;;;10.07;8.02;;;22.50;94.40;;;;;;5095006;28;20093;-74
2021/08/10 01:14:23;;;;;;;8.52;7.63;;;22.40;95.10;;;;;;5075105;28;20052;-74
2021/08/10 01:17:12;;;;;;;9.27;7.68;;;22.40;95.50;;;;;;5074729;28;20475;-78
2021/08/10 01:19:44;;;;;;;9.85;8.13;;;22.40;95.70;;;;;;5074894;28;20025;-74
2021/08/10 01:22:15;;;;;;;9.80;8.32;;;22.40;96.00;;;;;;5094520;28;20103;-73
2021/08/10 01:24:47;;;;;;;8.70;7.55;;;22.40;96.20;;;;;;5095451;28;20085;-74
2021/08/10 01:27:35;;;;;;;8.60;7.78;;;22.40;96.20;;;;;;5094903;28;20158;-74
2021/08/10 01:30:10;;;;;;;10.90;8.07;;;22.30;96.60;;;;;;5094770;28;20028;-73
2021/08/10 01:32:38;;;;;;;8.57;7.70;;;22.20;96.80;;;;;;5094296;28;20056;-76
2021/08/10 01:35:04;;;;;;;8.73;7.82;;;22.20;97.10;;;;;;5094584;28;20031;-75
2021/08/10 01:37:31;;;;;;;8.73;7.88;;;22.20;97.20;;;;;;5094507;28;20103;-76
2021/08/10 01:40:02;;;;;;;9.15;8.05;;;22.20;97.30;;;;;;5094872;28;20529;-75
2021/08/10 01:42:29;;;;;;;9.80;7.90;;;22.10;97.50;;;;;;5094031;28;20112;-74
2021/08/10 01:44:56;;;;;;;9.07;8.05;;;22.10;97.70;;;;;;5094572;28;20032;-76
2021/08/10 01:47:23;;;;;;;8.52;7.55;;;22.10;97.80;;;;;;5094395;28;20462;-77
2021/08/10 01:49:51;;;;;;;9.30;7.80;;;22.10;97.90;;;;;;5094407;28;20059;-75
2021/08/10 01:52:22;;;;;;;8.75;7.95;;;22.10;98.00;;;;;;5093917;28;20028;-74
2021/08/10 01:54:48;;;;;;;9.13;8.18;;;22.10;98.10;;;;;;5094511;28;20016;-83
2021/08/10 01:57:18;;;;;;;8.50;7.70;;;22.10;98.30;;;;;;5094746;28;20022;-75
2021/08/10 01:59:50;;;;;;;8.57;7.78;;;22.10;98.40;;;;;;5094336;28;20028;-75
2021/08/10 02:02:15;;;;;;;8.57;7.68;;;22.10;98.30;;;;;;5094015;28;20035;-76
2021/08/10 02:04:44;;;;;;;10.27;8.20;;;22.00;98.30;;;;;;5094350;28;20028;-77
2021/08/10 02:07:11;;;;;;;8.73;7.35;;;22.00;98.30;;;;;;5094292;28;20058;-76
2021/08/10 02:09:38;;;;;;;8.95;7.70;;;22.00;98.30;;;;;;5094024;28;20020;-75
2021/08/10 02:12:04;;;;;;;8.20;7.30;;;22.00;98.40;;;;;;5094203;28;20059;-76
2021/08/10 02:14:31;;;;;;;9.20;8.30;;;22.00;98.40;;;;;;5093765;28;20025;-75
2021/08/10 02:17:02;;;;;;;8.20;7.40;;;22.10;98.20;;;;;;5094458;28;20035;-77
2021/08/10 02:19:29;;;;;;;8.55;7.10;;;22.10;97.90;;;;;;5094297;28;20028;-75
2021/08/10 02:22:00;;;;;;;8.18;7.40;;;22.00;97.90;;;;;;5093943;28;20069;-75
2021/08/10 02:24:30;;;;;;;8.27;7.47;;;22.10;97.80;;;;;;5094355;28;20378;-75
2021/08/10 02:27:00;;;;;;;7.57;6.75;;;22.10;97.80;;;;;;5093956;28;20024;-73
2021/08/10 02:29:30;;;;;;;9.02;7.00;;;22.00;97.90;;;;;;5093920;28;20425;-81
2021/08/10 02:31:56;;;;;;;7.90;7.10;;;21.90;97.90;;;;;;5093300;28;20395;-75
2021/08/10 02:34:23;;;;;;;8.40;7.63;;;21.90;98.00;;;;;;5094272;28;20369;-75
2021/08/10 02:36:54;;;;;;;9.23;7.55;;;21.90;98.10;;;;;;5093911;28;20024;-75
2021/08/10 02:39:21;;;;;;;8.82;7.55;;;21.90;98.30;;;;;;5094265;28;20055;-78
2021/08/10 02:41:48;;;;;;;8.75;7.78;;;21.90;98.40;;;;;;5093934;28;20017;-80
2021/08/10 02:44:15;;;;;;;8.65;7.75;;;21.90;98.50;;;;;;5094158;28;20481;-85
2021/08/10 02:46:41;;;;;;;25.45;8.93;;;21.90;98.70;;;;;;5093713;28;20028;-80
2021/08/10 08:00:22;;;;;;;9.63;8.43;;;25.30;96.90;;;;;;5112599;27;20399;-85
2021/08/10 08:02:47;;;;;;;19.13;9.40;;;25.30;97.70;;;;;;5111916;28;20024;-80
2021/08/10 08:07:55;;;;;;;9.60;8.35;;;25.60;96.80;;;;;;5071658;28;20766;-73
2021/08/10 08:10:21;;;;;;;8.80;7.93;;;25.80;96.40;;;;;;5071125;28;20079;-73
2021/08/10 08:12:47;;;;;;;8.23;7.50;;;25.90;96.00;;;;;;5070895;28;20052;-76
2021/08/10 08:15:12;;;;;;;9.35;7.95;;;26.10;96.10;;;;;;5070710;28;20055;-78
2021/08/10 08:17:38;;;;;;;8.52;7.40;;;26.20;95.90;;;;;;5070864;28;20028;-77
2021/08/10 08:20:04;;;;;;;8.48;7.70;;;26.40;95.10;;;;;;5071163;28;20032;-76
2021/08/10 08:22:30;;;;;;;9.98;7.38;;;26.50;95.00;;;;;;5071315;28;20028;-76
2021/08/10 17:33:40;;;;;;;10.10;8.00;;;26.60;89.10;;;;;;5071203;28;20368;-77
2021/08/10 17:36:07;;;;;;;9.80;8.25;;;26.10;90.20;;;;;;5071107;28;20436;-76
2021/08/10 17:38:33;;;;;;;9.65;7.75;;;26.10;90.50;;;;;;5071408;28;20049;-79
2021/08/10 17:41:00;;;;;;;8.43;7.63;;;26.10;90.70;;;;;;5072240;28;20025;-80
2021/08/10 17:43:28;;;;;;;12.75;9.63;;;26.10;90.60;;;;;;5069994;28;20458;-78
2021/08/10 17:45:55;;;;;;;9.10;7.87;;;26.20;90.40;;;;;;5069782;28;20032;-77
2021/08/10 17:48:22;;;;;;;12.55;8.57;;;26.30;90.20;;;;;;5070373;28;20044;-85
2021/08/10 17:50:48;;;;;;;10.32;9.23;;;26.30;89.80;;;;;;5070494;28;20417;-77
2021/08/10 17:53:17;;;;;;;12.38;9.65;;;26.40;89.50;;;;;;5070354;28;20028;-76
2021/08/10 17:55:43;;;;;;;10.35;8.32;;;26.40;89.30;;;;;;5069426;28;20016;-79
2021/08/10 17:58:09;;;;;;;9.82;7.38;;;26.40;89.20;;;;;;5058072;28;20381;-77
2021/08/10 18:00:35;;;;;;;8.70;7.43;;;26.40;89.10;;;;;;5070347;28;20032;-78
2021/08/10 18:03:00;;;;;;;17.50;15.18;;;26.40;88.70;;;;;;5070197;28;20020;-77
2021/08/10 18:05:27;;;;;;;10.73;9.02;;;26.40;88.70;;;;;;5069936;28;20021;-79
2021/08/10 18:07:53;;;;;;;9.52;7.80;;;26.50;88.40;;;;;;5070384;28;20057;-79
2021/08/10 18:10:19;;;;;;;10.57;7.25;;;26.50;88.50;;;;;;5070519;28;20458;-79
2021/08/10 18:12:44;;;;;;;17.55;10.07;;;26.50;88.70;;;;;;5070322;28;20040;-80
2021/08/10 18:15:11;;;;;;;10.18;7.78;;;26.60;88.90;;;;;;5070108;28;20025;-79
2021/08/10 18:17:36;;;;;;;8.40;7.20;;;26.60;89.00;;;;;;5070156;28;20100;-79
2021/08/10 18:20:03;;;;;;;8.90;6.70;;;26.60;89.10;;;;;;5069835;28;20408;-79
2021/08/10 18:22:28;;;;;;;8.60;7.28;;;26.70;88.90;;;;;;5069855;28;20483;-80
2021/08/10 18:24:54;;;;;;;10.07;7.38;;;26.70;88.80;;;;;;5069777;28;20055;-79
2021/08/10 18:27:20;;;;;;;9.18;7.07;;;26.70;88.70;;;;;;5069523;28;20028;-81
2021/08/10 18:29:48;;;;;;;9.88;8.98;;;26.90;88.20;;;;;;5069602;28;20067;-84
2021/08/10 18:32:13;;;;;;;13.63;10.73;;;26.90;87.90;;;;;;5069068;28;20123;-79
2021/08/10 18:34:39;;;;;;;8.27;7.22;;;26.90;88.00;;;;;;5069375;28;20419;-81
2021/08/10 18:37:07;;;;;;;8.98;7.50;;;26.90;87.50;;;;;;5069503;28;20044;-80
2021/08/10 18:39:33;;;;;;;10.07;7.53;;;26.90;87.30;;;;;;5069467;28;20059;-79
2021/08/10 18:41:59;;;;;;;17.33;12.65;;;26.90;87.30;;;;;;5069598;28;20016;-79
2021/08/10 18:44:26;;;;;;;19.60;13.65;;;26.90;87.20;;;;;;5059497;28;20028;-80
2021/08/10 18:46:52;;;;;;;16.65;10.95;;;26.80;87.50;;;;;;5055850;28;20117;-81
2021/08/10 18:49:18;;;;;;;11.85;9.02;;;26.80;87.60;;;;;;5055985;28;20487;-82
2021/08/10 18:51:44;;;;;;;9.82;8.35;;;26.70;87.70;;;;;;5055894;28;20059;-82
2021/08/10 18:54:09;;;;;;;9.77;8.18;;;26.70;87.60;;;;;;5055786;28;20021;-84
2021/08/10 18:56:35;;;;;;;12.07;7.68;;;26.70;87.60;;;;;;5054473;28;20349;-82
2021/08/10 18:59:01;;;;;;;9.50;7.68;;;26.70;87.60;;;;;;5055754;28;20021;-83
2021/08/10 19:01:26;;;;;;;8.65;7.70;;;26.70;87.50;;;;;;5055880;28;20021;-82
2021/08/10 19:03:52;;;;;;;8.68;7.25;;;26.70;87.50;;;;;;5055622;28;20017;-86
2021/08/10 19:06:17;;;;;;;8.77;7.75;;;26.60;87.80;;;;;;5055698;28;20044;-86
2021/08/10 19:08:43;;;;;;;11.50;7.15;;;26.60;88.30;;;;;;5055759;28;20049;-82
2021/08/10 19:11:09;;;;;;;10.18;7.97;;;26.50;88.70;;;;;;5055724;28;20025;-81
2021/08/10 19:13:34;;;;;;;10.15;7.15;;;26.40;89.10;;;;;;5055474;28;20032;-83
2021/08/10 19:16:00;;;;;;;8.13;6.78;;;26.50;89.10;;;;;;5055857;28;20017;-85
2021/08/10 19:18:26;;;;;;;10.80;7.05;;;26.40;89.10;;;;;;5055655;28;20063;-85
2021/08/10 19:20:52;;;;;;;9.93;6.40;;;26.50;89.00;;;;;;5055772;28;20021;-83
2021/08/10 19:23:17;;;;;;;10.82;7.15;;;26.50;89.10;;;;;;5061277;28;20107;-83
2021/08/10 19:25:43;;;;;;;8.52;6.45;;;26.50;89.10;;;;;;5056363;28;20056;-85
2021/08/10 19:28:10;;;;;;;10.88;7.30;;;26.50;88.80;;;;;;5055066;28;20029;-82
2021/08/10 19:30:36;;;;;;;13.18;9.98;;;26.60;88.70;;;;;;5055138;28;20032;-81
2021/08/10 19:33:03;;;;;;;11.48;8.20;;;26.50;88.70;;;;;;5054786;28;20142;-80
2021/08/10 19:35:28;;;;;;;13.73;11.18;;;26.40;88.90;;;;;;5055833;28;20044;-81
2021/08/10 19:37:54;;;;;;;9.13;6.70;;;26.50;88.90;;;;;;5055037;28;20017;-87
2021/08/10 19:40:20;;;;;;;8.73;6.32;;;26.50;88.60;;;;;;5055513;28;20379;-89
2021/08/10 19:42:46;;;;;;;8.38;6.50;;;26.50;88.50;;;;;;5055199;28;20036;-89
2021/08/10 19:45:12;;;;;;;11.00;6.75;;;26.50;88.50;;;;;;5055499;28;20108;-89
2021/08/10 19:47:39;;;;;;;6.22;5.50;;;26.50;88.10;;;;;;5055475;28;20021;-86
2021/08/10 19:50:07;;;;;;;8.07;5.90;;;26.40;88.10;;;;;;5055167;28;20028;-84
2021/08/10 19:52:33;;;;;;;7.25;5.95;;;26.40;88.10;;;;;;5055330;28;20057;-89
2021/08/10 19:54:59;;;;;;;6.22;5.60;;;26.40;88.00;;;;;;5054635;28;20102;-88
2021/08/10 19:57:24;;;;;;;8.93;5.90;;;26.40;87.90;;;;;;5053977;28;20384;-86
2021/08/10 19:59:52;;;;;;;7.45;5.88;;;26.30;88.00;;;;;;5055104;28;20121;-90
2021/08/10 20:02:17;;;;;;;6.18;5.63;;;26.20;88.20;;;;;;5055243;28;20468;-89
2021/08/10 20:04:43;;;;;;;6.75;5.70;;;26.10;88.20;;;;;;5055239;28;20082;-86
2021/08/10 20:07:09;;;;;;;6.50;5.90;;;26.20;88.10;;;;;;5055500;28;20096;-91
2021/08/10 20:09:34;;;;;;;6.07;5.47;;;26.00;88.30;;;;;;5055219;28;20035;-90
2021/08/10 20:12:01;;;;;;;7.32;5.57;;;26.00;88.50;;;;;;5054904;28;20075;-87
2021/08/10 20:14:27;;;;;;;6.15;5.32;;;26.00;88.80;;;;;;5055000;28;20036;-90
2021/08/10 20:16:52;;;;;;;9.13;5.70;;;25.90;89.00;;;;;;5054955;28;20024;-89
2021/08/10 20:19:19;;;;;;;7.07;5.40;;;25.80;89.30;;;;;;5055018;28;20476;-86
2021/08/10 20:21:47;;;;;;;6.28;5.65;;;25.90;89.50;;;;;;5054822;28;20062;-90
2021/08/10 20:24:19;;;;;;;7.07;5.45;;;25.80;89.60;;;;;;5054971;28;20025;-88
2021/08/10 20:26:46;;;;;;;6.45;5.50;;;25.80;89.60;;;;;;5055003;28;20033;-87
2021/08/10 20:29:12;;;;;;;5.78;5.15;;;25.70;90.00;;;;;;5054712;28;20480;-85
2021/08/10 20:31:38;;;;;;;8.52;5.13;;;25.70;90.10;;;;;;5054199;28;20049;-87
2021/08/10 20:34:04;;;;;;;7.05;5.40;;;25.70;90.20;;;;;;5054908;28;20048;-87
2021/08/10 20:36:29;;;;;;;7.50;5.38;;;25.60;90.30;;;;;;5054767;28;20033;-86
2021/08/10 20:38:56;;;;;;;6.47;4.90;;;25.70;90.40;;;;;;5054640;28;20023;-87
2021/08/10 20:41:22;;;;;;;5.95;5.40;;;25.60;90.60;;;;;;5054547;28;20029;-90
2021/08/10 20:43:48;;;;;;;6.13;5.07;;;25.60;90.60;;;;;;5054484;28;20084;-88
2021/08/10 20:46:14;;;;;;;10.30;4.78;;;25.60;90.60;;;;;;5054639;28;20021;-89
2021/08/10 20:48:40;;;;;;;6.28;4.78;;;25.50;90.70;;;;;;5054530;28;20078;-90
2021/08/10 20:51:08;;;;;;;6.25;4.75;;;25.50;90.90;;;;;;5054551;28;20021;-88
2021/08/10 20:53:34;;;;;;;6.72;5.28;;;25.50;91.00;;;;;;5054244;28;20100;-90
2021/08/10 20:56:00;;;;;;;6.43;5.25;;;25.60;91.10;;;;;;5054700;28;20025;-90
2021/08/10 20:58:26;;;;;;;7.20;5.18;;;25.50;91.30;;;;;;5054192;28;20486;-85
2021/08/10 21:00:51;;;;;;;5.65;5.05;;;25.50;91.40;;;;;;5054252;28;20103;-89
2021/08/10 21:03:17;;;;;;;7.00;5.32;;;25.50;91.20;;;;;;5054053;28;20021;-88
2021/08/10 21:05:43;;;;;;;7.22;5.10;;;25.40;91.10;;;;;;5054328;28;20017;-89
2021/08/10 21:08:09;;;;;;;8.30;5.30;;;25.40;91.20;;;;;;5065044;28;20029;-88
2021/08/10 21:10:34;;;;;;;4.95;4.45;;;25.40;91.20;;;;;;5054276;28;20098;-89
2021/08/10 21:13:01;;;;;;;8.10;4.72;;;25.40;91.20;;;;;;5054176;28;20472;-82
2021/08/10 21:15:26;;;;;;;7.93;5.10;;;25.40;91.20;;;;;;5054073;28;20025;-89
2021/08/10 21:17:52;;;;;;;6.43;4.88;;;25.30;91.20;;;;;;5054384;28;20031;-89
2021/08/10 21:20:18;;;;;;;8.55;4.50;;;25.30;91.20;;;;;;5054098;28;20028;-89
2021/08/10 21:22:43;;;;;;;5.70;4.88;;;25.20;91.30;;;;;;5054046;28;20032;-84
2021/08/10 21:25:10;;;;;;;7.40;5.07;;;25.20;91.40;;;;;;5054156;28;20484;-88
2021/08/10 21:27:36;;;;;;;6.18;4.70;;;25.20;91.30;;;;;;5054163;28;20054;-90
2021/08/10 21:30:03;;;;;;;6.78;4.60;;;25.20;91.40;;;;;;5054179;28;20376;-87
2021/08/10 21:32:28;;;;;;;7.47;5.13;;;25.10;91.70;;;;;;5053622;28;20514;-90
2021/08/10 21:34:54;;;;;;;5.68;4.72;;;25.10;91.50;;;;;;5054126;28;20033;-88
2021/08/10 21:37:20;;;;;;;5.47;4.60;;;25.10;91.60;;;;;;5053983;28;20025;-88
2021/08/10 21:39:46;;;;;;;7.13;5.07;;;25.00;91.50;;;;;;5053982;28;20056;-88
2021/08/10 21:42:11;;;;;;;6.03;4.57;;;25.00;91.60;;;;;;5053918;28;20108;-88
2021/08/10 21:44:37;;;;;;;4.97;4.57;;;25.00;91.60;;;;;;5053849;28;20476;-89
2021/08/10 21:47:03;;;;;;;8.48;4.88;;;25.00;91.70;;;;;;5053456;28;20029;-89
2021/08/10 21:49:29;;;;;;;10.30;4.97;;;24.90;91.80;;;;;;5053787;28;20037;-88
2021/08/10 21:51:54;;;;;;;5.10;4.60;;;24.90;91.60;;;;;;5053773;28;20047;-89
2021/08/10 21:54:20;;;;;;;4.97;4.30;;;24.90;91.70;;;;;;5054270;28;20021;-90
2021/08/10 21:56:46;;;;;;;5.55;4.60;;;24.90;91.70;;;;;;5053905;28;20017;-81
2021/08/10 21:59:11;;;;;;;5.78;4.82;;;24.90;91.80;;;;;;5053951;28;20029;-90
2021/08/10 22:01:37;;;;;;;5.22;4.72;;;24.90;91.80;;;;;;5053965;28;20045;-91
2021/08/10 22:04:03;;;;;;;7.13;4.90;;;24.90;91.90;;;;;;5053971;28;20426;-89
2021/08/10 22:06:28;;;;;;;5.47;4.70;;;24.80;91.90;;;;;;5053776;28;20430;-89
2021/08/10 22:08:55;;;;;;;5.45;4.88;;;24.80;92.10;;;;;;5053969;28;20353;-88
2021/08/10 22:11:21;;;;;;;5.32;4.82;;;24.70;92.10;;;;;;5053824;28;20017;-90
2021/08/10 22:13:47;;;;;;;6.57;4.57;;;24.70;92.20;;;;;;5053906;28;20502;-88
2021/08/10 22:16:14;;;;;;;5.15;4.65;;;24.70;92.30;;;;;;5053828;28;20017;-90
2021/08/10 22:18:40;;;;;;;4.82;4.40;;;24.70;92.40;;;;;;5054585;28;20053;-82
2021/08/10 22:21:06;;;;;;;6.15;4.35;;;24.70;92.50;;;;;;5057421;28;20506;-89
2021/08/10 22:23:31;;;;;;;5.88;4.75;;;24.70;92.40;;;;;;5057479;28;20124;-91
2021/08/10 22:25:57;;;;;;;6.50;4.53;;;24.70;92.40;;;;;;5057315;28;20092;-87
2021/08/10 22:28:23;;;;;;;6.43;4.70;;;24.70;92.50;;;;;;5057685;28;20039;-90
2021/08/10 22:30:49;;;;;;;5.10;4.60;;;24.70;92.50;;;;;;5057438;28;20554;-89
2021/08/10 22:33:16;;;;;;;5.85;4.60;;;24.70;92.50;;;;;;5057194;28;20057;-89
2021/08/10 22:35:43;;;;;;;4.78;4.38;;;24.60;92.40;;;;;;5057356;28;20021;-90
2021/08/10 22:38:10;;;;;;;5.60;5.10;;;24.60;92.40;;;;;;5057281;28;20025;-87
2021/08/10 22:40:36;;;;;;;5.68;4.45;;;24.60;92.50;;;;;;5057061;28;20045;-85
2021/08/10 22:43:02;;;;;;;5.30;4.80;;;24.60;92.30;;;;;;5057134;28;20024;-90
2021/08/10 22:45:28;;;;;;;5.32;4.82;;;24.60;92.40;;;;;;5056975;28;20376;-90
2021/08/10 22:47:54;;;;;;;5.55;4.85;;;24.50;92.50;;;;;;5057133;28;20021;-91
2021/08/10 22:50:20;;;;;;;7.70;4.60;;;24.50;92.50;;;;;;5059625;28;20116;-88
2021/08/10 22:52:46;;;;;;;4.78;4.30;;;24.50;92.60;;;;;;5061182;28;20029;-87
2021/08/10 22:55:15;;;;;;;6.53;4.70;;;24.40;92.60;;;;;;5056615;28;20100;-86
2021/08/10 22:57:43;;;;;;;5.45;4.85;;;24.40;92.70;;;;;;5056505;28;20028;-81
2021/08/10 23:00:13;;;;;;;4.93;4.53;;;24.40;92.80;;;;;;5056324;28;20422;-88
2021/08/10 23:02:39;;;;;;;6.70;5.00;;;24.30;92.80;;;;;;5056212;28;20025;-86
2021/08/10 23:05:05;;;;;;;5.38;4.80;;;24.30;93.00;;;;;;5056408;28;20029;-84
2021/08/10 23:07:31;;;;;;;5.03;4.60;;;24.30;93.00;;;;;;5056639;28;20025;-90
2021/08/10 23:09:56;;;;;;;5.00;4.50;;;24.20;93.10;;;;;;5056822;28;20248;-89
2021/08/10 23:12:22;;;;;;;9.90;4.70;;;24.20;93.40;;;;;;5056550;28;20032;-84
2021/08/10 23:14:47;;;;;;;4.85;4.43;;;24.20;93.50;;;;;;5056100;28;20024;-88
2021/08/10 23:17:13;;;;;;;5.05;4.50;;;24.10;93.60;;;;;;5056046;28;20104;-87
2021/08/10 23:19:39;;;;;;;6.43;4.82;;;24.10;93.80;;;;;;5056245;28;20092;-84
2021/08/10 23:22:04;;;;;;;7.10;5.10;;;24.10;93.90;;;;;;5056053;28;20055;-88
2021/08/10 23:24:30;;;;;;;5.60;5.00;;;24.10;93.80;;;;;;5056026;28;20494;-87
2021/08/10 23:26:56;;;;;;;4.93;4.43;;;24.20;93.70;;;;;;5055917;28;20025;-89
2021/08/10 23:29:21;;;;;;;7.47;4.70;;;24.10;93.60;;;;;;5055981;28;20039;-89
2021/08/10 23:31:47;;;;;;;5.30;4.70;;;24.00;93.80;;;;;;5055663;28;20088;-87
2021/08/10 23:34:13;;;;;;;5.43;4.93;;;24.00;93.80;;;;;;5056033;28;20029;-88
2021/08/10 23:36:38;;;;;;;7.45;5.07;;;24.00;94.00;;;;;;5055813;28;20025;-86
2021/08/10 23:39:04;;;;;;;8.68;5.25;;;24.00;94.00;;;;;;5056043;28;20021;-88
2021/08/10 23:41:30;;;;;;;6.80;5.05;;;23.90;94.20;;;;;;5055743;28;20021;-87
2021/08/10 23:43:55;;;;;;;5.25;4.53;;;23.90;94.30;;;;;;5055759;28;20021;-87
2021/08/10 23:46:21;;;;;;;5.15;4.70;;;23.90;94.40;;;;;;5055947;28;20100;-89
2021/08/10 23:48:47;;;;;;;5.38;4.70;;;23.90;94.50;;;;;;5055847;28;20021;-86
2021/08/10 23:51:13;;;;;;;7.75;5.00;;;23.90;94.70;;;;;;5055600;28;20025;-88
2021/08/10 23:53:38;;;;;;;7.85;4.65;;;23.90;94.80;;;;;;5055794;28;20407;-89
2021/08/10 23:56:06;;;;;;;6.80;4.80;;;23.90;94.80;;;;;;5055480;28;20029;-87
2021/08/10 23:58:32;;;;;;;5.30;4.72;;;23.90;94.90;;;;;;5055665;28;20383;-86
